Time;durP1;ratioP1;P1;durP2;ratioP2;P2;SDS_P1;SDS_P2;PMS_P1;PMS_P2;Temp;Humidity;BMP_temperature;BMP_pressure;BME280_temperature;BME280_humidity;BME280_pressure;Samples;Min_cycle;Max_cycle;Signal;HPM_P1;HPM_P2
2023/08/31 00:00:04;;;;;;;2.25;1.30;;;;;;;15.14;46.50;100459.41;5049416;28;20133;-83
2023/08/31 00:02:33;;;;;;;3.00;1.60;;;;;;;15.10;46.43;100449.75;5048181;28;20103;-83
2023/08/31 00:05:01;;;;;;;3.00;1.30;;;;;;;15.12;46.22;100458.72;5034319;28;20037;-81
2023/08/31 00:07:30;;;;;;;3.55;1.50;;;;;;;15.12;46.08;100453.22;5032550;28;20045;-82
2023/08/31 00:09:58;;;;;;;2.42;1.40;;;;;;;15.09;46.31;100446.13;5028278;28;20041;-82
2023/08/31 00:12:26;;;;;;;2.78;1.40;;;;;;;15.12;46.54;100450.44;5030037;28;20110;-81
2023/08/31 00:14:56;;;;;;;3.50;1.70;;;;;;;15.14;46.39;100448.38;5033576;28;20048;-83
2023/08/31 00:17:25;;;;;;;3.30;1.45;;;;;;;15.09;46.88;100448.88;5030180;28;20132;-82
2023/08/31 00:19:54;;;;;;;3.45;1.60;;;;;;;15.10;46.36;100455.25;5033516;28;20140;-83
2023/08/31 00:22:22;;;;;;;1.90;1.27;;;;;;;15.08;46.01;100452.72;5030572;28;20060;-82
2023/08/31 00:24:51;;;;;;;4.03;1.50;;;;;;;15.08;46.40;100449.94;5030100;28;20089;-82
2023/08/31 00:27:20;;;;;;;2.60;1.42;;;;;;;15.08;46.12;100451.84;5027056;28;20154;-80
2023/08/31 00:29:50;;;;;;;3.80;1.70;;;;;;;15.05;46.16;100450.28;5035486;28;20045;-83
2023/08/31 00:32:22;;;;;;;2.35;1.30;;;;;;;15.07;46.09;100459.25;5036025;28;20115;-82
2023/08/31 00:34:50;;;;;;;3.28;1.50;;;;;;;15.05;46.39;100453.03;5051963;28;20040;-83
2023/08/31 00:37:21;;;;;;;3.40;1.63;;;;;;;15.03;46.35;100452.34;5033514;28;20041;-82
2023/08/31 00:39:51;;;;;;;3.60;1.55;;;;;;;15.03;46.27;100454.25;5030950;28;20103;-82
2023/08/31 00:42:19;;;;;;;3.67;1.42;;;;;;;15.01;46.30;100457.16;5048356;28;20075;-82
2023/08/31 00:44:48;;;;;;;3.67;1.50;;;;;;;15.00;46.35;100451.84;5032583;28;20508;-83
2023/08/31 00:47:16;;;;;;;3.15;1.63;;;;;;;14.98;46.51;100449.25;5031124;28;20033;-82
2023/08/31 00:49:46;;;;;;;3.20;1.40;;;;;;;15.01;46.31;100459.91;5033561;28;20508;-82
2023/08/31 00:52:14;;;;;;;3.97;1.55;;;;;;;14.98;46.17;100459.41;5033960;28;20044;-81
2023/08/31 00:54:43;;;;;;;2.80;1.80;;;;;;;14.97;46.51;100463.22;5028087;28;20048;-81
2023/08/31 00:57:10;;;;;;;3.50;1.70;;;;;;;14.96;46.56;100461.47;5034234;28;20073;-82
2023/08/31 00:59:38;;;;;;;3.28;1.50;;;;;;;14.93;46.38;100457.16;5037047;28;20061;-82
2023/08/31 01:02:13;;;;;;;3.97;1.67;;;;;;;14.93;47.00;100462.69;5037029;28;20049;-82
2023/08/31 01:04:53;;;;;;;3.45;1.63;;;;;;;14.92;46.73;100458.22;5041495;28;20140;-83
2023/08/31 01:07:33;;;;;;;3.65;1.70;;;;;;;14.91;46.25;100459.25;5035727;28;20059;-82
2023/08/31 01:10:08;;;;;;;3.90;1.52;;;;;;;14.91;46.60;100458.41;5051419;28;20045;-81
2023/08/31 01:12:45;;;;;;;2.95;1.60;;;;;;;14.90;46.34;100463.03;5018070;28;20389;-82
2023/08/31 01:15:15;;;;;;;3.97;1.60;;;;;;;14.87;46.88;100455.09;5023266;28;20132;-83
2023/08/31 01:17:48;;;;;;;3.35;1.50;;;;;;;14.86;46.56;100445.13;5036720;28;20041;-83
2023/08/31 01:20:27;;;;;;;4.25;1.70;;;;;;;14.87;46.94;100455.09;5057599;28;20032;-82
2023/08/31 01:23:07;;;;;;;3.15;1.67;;;;;;;14.86;46.83;100456.13;5022368;28;20049;-82
2023/08/31 01:25:38;;;;;;;4.88;1.70;;;;;;;14.87;46.77;100462.50;5047510;28;20065;-84
2023/08/31 01:28:07;;;;;;;4.35;1.70;;;;;;;14.84;46.33;100454.63;5031096;28;20041;-83
2023/08/31 01:30:35;;;;;;;3.55;1.63;;;;;;;14.82;46.67;100454.78;5026555;28;20521;-83
2023/08/31 01:33:04;;;;;;;3.88;1.88;;;;;;;14.83;46.67;100453.75;5028509;28;20044;-83
2023/08/31 01:35:43;;;;;;;3.78;1.70;;;;;;;14.85;46.38;100457.16;5027562;28;20121;-83
2023/08/31 01:38:21;;;;;;;3.78;1.65;;;;;;;14.79;46.17;100457.00;5032655;28;20566;-82
2023/08/31 01:40:56;;;;;;;3.95;1.70;;;;;;;14.83;46.47;100461.16;5034632;28;20118;-83
2023/08/31 01:43:25;;;;;;;2.83;1.52;;;;;;;14.80;46.14;100470.59;5027243;28;20033;-82
2023/08/31 01:45:54;;;;;;;3.38;1.60;;;;;;;14.78;46.61;100469.91;5032310;28;20053;-83
2023/08/31 01:48:22;;;;;;;2.97;1.75;;;;;;;14.77;46.04;100468.19;5031813;28;20132;-83
2023/08/31 01:50:50;;;;;;;3.58;1.67;;;;;;;14.77;46.47;100469.06;5027699;28;20051;-83
2023/08/31 01:53:18;;;;;;;2.60;1.50;;;;;;;14.76;46.04;100472.00;5031808;28;20275;-81
2023/08/31 01:55:46;;;;;;;5.32;1.92;;;;;;;14.74;46.01;100474.91;5030074;28;20539;-83
2023/08/31 01:58:15;;;;;;;3.65;1.90;;;;;;;14.74;46.02;100477.69;5029497;28;20044;-82
2023/08/31 02:00:44;;;;;;;3.22;1.70;;;;;;;14.70;46.07;100476.28;5031838;28;20103;-83
2023/08/31 02:03:12;;;;;;;2.47;1.40;;;;;;;14.71;46.03;100475.25;5032321;28;20037;-82
2023/08/31 02:05:42;;;;;;;3.50;1.58;;;;;;;14.70;46.55;100476.28;5046862;28;20052;-82
2023/08/31 02:08:10;;;;;;;4.43;1.70;;;;;;;14.69;46.01;100473.69;5032534;28;20045;-84
2023/08/31 02:10:38;;;;;;;3.35;1.80;;;;;;;14.68;46.00;100483.84;5033980;28;20124;-85
2023/08/31 02:13:06;;;;;;;3.60;1.60;;;;;;;14.66;46.03;100476.81;5033006;28;20040;-84
2023/08/31 02:15:38;;;;;;;2.67;1.45;;;;;;;14.68;46.21;100485.75;5030313;28;20044;-84
2023/08/31 02:18:08;;;;;;;3.00;1.50;;;;;;;14.63;46.04;100489.00;5032492;28;20037;-82
2023/08/31 02:20:36;;;;;;;3.80;1.88;;;;;;;14.62;45.98;100487.28;5033384;28;20059;-84
2023/08/31 02:23:05;;;;;;;2.65;1.52;;;;;;;14.60;46.48;100489.34;5030548;28;20037;-83
2023/08/31 02:25:34;;;;;;;3.13;1.73;;;;;;;14.58;46.03;100485.91;5037435;28;20098;-83
2023/08/31 02:28:02;;;;;;;2.95;1.50;;;;;;;14.58;46.56;100485.06;5039029;28;20049;-85
2023/08/31 02:30:30;;;;;;;4.07;1.52;;;;;;;14.57;46.53;100491.59;5044127;28;20052;-83
2023/08/31 02:32:59;;;;;;;3.58;1.40;;;;;;;14.57;46.18;100486.94;5032437;28;20059;-83
2023/08/31 02:35:27;;;;;;;2.67;1.48;;;;;;;14.55;46.51;100489.00;5036050;28;20134;-83
2023/08/31 02:37:55;;;;;;;2.85;1.40;;;;;;;14.55;46.19;100490.88;5037808;28;20076;-83
2023/08/31 02:40:23;;;;;;;3.20;1.65;;;;;;;14.54;46.26;100489.16;5035294;28;20037;-84
2023/08/31 02:42:52;;;;;;;3.40;1.65;;;;;;;14.52;46.44;100483.00;5031326;28;20053;-84
2023/08/31 02:45:21;;;;;;;2.58;1.50;;;;;;;14.51;46.37;100484.00;5045820;28;20109;-84
2023/08/31 02:47:49;;;;;;;3.70;1.42;;;;;;;14.49;46.12;100484.19;5034229;28;20042;-85
2023/08/31 02:50:19;;;;;;;3.13;1.52;;;;;;;14.50;46.08;100477.63;5012280;28;20483;-82
2023/08/31 02:52:47;;;;;;;3.03;1.50;;;;;;;14.48;46.01;100481.59;5038067;28;20041;-85
2023/08/31 02:55:15;;;;;;;2.47;1.40;;;;;;;14.46;45.88;100478.97;5055885;28;20052;-82
2023/08/31 02:57:43;;;;;;;2.25;1.42;;;;;;;14.45;46.33;100481.88;5051777;28;20052;-84
2023/08/31 03:00:12;;;;;;;3.30;1.45;;;;;;;14.45;46.28;100481.88;5035393;28;20087;-85
2023/08/31 03:02:40;;;;;;;2.72;1.33;;;;;;;14.40;45.73;100479.66;5055351;28;20041;-83
2023/08/31 03:05:09;;;;;;;3.17;1.30;;;;;;;14.39;46.11;100478.78;5067957;28;20025;-82
2023/08/31 03:07:38;;;;;;;2.88;1.50;;;;;;;14.39;45.89;100475.16;5048433;28;20033;-82
2023/08/31 03:10:07;;;;;;;2.90;1.60;;;;;;;14.38;46.50;100484.44;5039244;28;20394;-82
2023/08/31 03:12:36;;;;;;;3.13;1.40;;;;;;;14.35;46.55;100471.88;5032865;28;20036;-83
2023/08/31 03:15:07;;;;;;;3.65;1.60;;;;;;;14.36;46.27;100478.25;5036376;28;20041;-82
2023/08/31 03:17:35;;;;;;;3.45;1.73;;;;;;;14.32;46.15;100476.88;5047932;28;20053;-83
2023/08/31 03:20:06;;;;;;;2.90;1.27;;;;;;;14.32;45.99;100479.63;5040096;28;20083;-82
2023/08/31 03:22:34;;;;;;;3.10;1.50;;;;;;;14.31;46.30;100478.75;5036921;28;20037;-82
2023/08/31 03:25:05;;;;;;;2.42;1.40;;;;;;;14.32;45.72;100490.63;5031592;28;20052;-82
2023/08/31 03:27:33;;;;;;;2.65;1.25;;;;;;;14.29;45.87;100485.44;5050313;28;20044;-84
2023/08/31 03:30:01;;;;;;;1.95;1.30;;;;;;;14.28;45.94;100486.47;5030494;28;20056;-82
2023/08/31 03:32:29;;;;;;;2.28;1.35;;;;;;;14.27;46.14;100482.88;5036054;28;20086;-82
2023/08/31 03:34:58;;;;;;;3.10;1.52;;;;;;;14.26;45.79;100492.19;5034852;28;20140;-83
2023/08/31 03:37:27;;;;;;;2.97;1.23;;;;;;;14.26;46.22;100500.44;5032963;28;20424;-81
2023/08/31 03:39:56;;;;;;;2.50;1.33;;;;;;;14.25;46.21;100490.44;5031072;28;20042;-82
2023/08/31 03:42:26;;;;;;;3.00;1.30;;;;;;;14.26;45.90;100503.19;5037144;28;20045;-82
2023/08/31 03:44:54;;;;;;;1.75;1.17;;;;;;;14.25;46.03;100504.22;5031964;28;20123;-81
2023/08/31 03:47:22;;;;;;;2.25;1.30;;;;;;;14.24;46.32;100496.97;5030754;28;20071;-82
2023/08/31 03:49:50;;;;;;;3.03;1.50;;;;;;;14.23;46.07;100497.13;5034400;28;20408;-81
2023/08/31 03:52:18;;;;;;;2.45;1.30;;;;;;;14.24;46.24;100496.13;5025337;28;20033;-83
2023/08/31 03:54:46;;;;;;;3.42;1.58;;;;;;;14.23;46.32;100491.63;5031592;28;20036;-83
2023/08/31 03:57:14;;;;;;;2.55;1.40;;;;;;;14.20;46.28;100484.56;5038242;28;20604;-82
2023/08/31 03:59:43;;;;;;;3.42;1.48;;;;;;;14.23;45.95;100488.88;5034547;28;20269;-82
2023/08/31 04:02:11;;;;;;;3.67;1.52;;;;;;;14.20;46.36;100489.19;5043135;28;20053;-83
2023/08/31 04:04:40;;;;;;;2.97;1.50;;;;;;;14.20;46.17;100501.06;5027416;28;20088;-83
2023/08/31 04:07:08;;;;;;;4.68;1.55;;;;;;;14.19;46.44;100502.09;5035437;28;20103;-83
2023/08/31 04:09:36;;;;;;;3.20;1.40;;;;;;;14.18;46.48;100492.16;5034900;28;20036;-83
2023/08/31 04:12:04;;;;;;;3.33;1.75;;;;;;;14.19;46.22;100501.28;5036243;28;20049;-80
2023/08/31 04:14:32;;;;;;;3.05;1.67;;;;;;;14.17;46.32;100500.56;5054165;28;20538;-81
2023/08/31 04:17:04;;;;;;;3.65;1.83;;;;;;;14.18;46.00;100508.66;5034181;28;20049;-84
2023/08/31 04:19:33;;;;;;;2.75;1.58;;;;;;;14.13;46.20;100501.91;5037088;28;20098;-83
2023/08/31 04:22:00;;;;;;;3.10;1.70;;;;;;;14.16;46.31;100512.59;5041073;28;20059;-82
2023/08/31 04:24:28;;;;;;;3.15;1.80;;;;;;;14.14;46.06;100500.88;5053542;28;20060;-83
2023/08/31 04:26:56;;;;;;;3.40;1.77;;;;;;;14.15;46.32;100510.88;5028222;28;20059;-83
2023/08/31 04:29:24;;;;;;;3.67;1.85;;;;;;;14.14;46.04;100509.16;5034780;28;20103;-82
2023/08/31 04:31:52;;;;;;;3.97;1.92;;;;;;;14.10;46.21;100500.38;5036501;28;20045;-82
2023/08/31 04:34:21;;;;;;;3.10;1.90;;;;;;;14.16;46.15;100509.84;5039102;28;20106;-82
2023/08/31 04:36:49;;;;;;;2.85;1.50;;;;;;;14.13;46.32;100522.03;5036308;28;20080;-83
2023/08/31 04:39:17;;;;;;;3.05;1.80;;;;;;;14.11;46.18;100514.97;5038081;28;20057;-82
2023/08/31 04:41:46;;;;;;;3.95;1.70;;;;;;;14.11;46.57;100524.09;5039534;28;20045;-83
2023/08/31 04:44:13;;;;;;;4.43;2.10;;;;;;;14.11;46.29;100520.47;5052622;28;20117;-82
2023/08/31 04:46:42;;;;;;;3.85;1.80;;;;;;;14.10;46.67;100533.41;5059504;28;20167;-82
2023/08/31 04:49:10;;;;;;;4.00;2.10;;;;;;;14.09;46.32;100533.56;5050300;28;20033;-82
2023/08/31 04:51:41;;;;;;;3.13;2.00;;;;;;;14.10;46.35;100533.41;5038531;28;20065;-83
2023/08/31 04:54:10;;;;;;;4.25;1.92;;;;;;;14.06;46.79;100534.75;5061376;28;20076;-83
2023/08/31 04:56:40;;;;;;;3.20;2.00;;;;;;;14.05;46.64;100533.00;5036019;28;20084;-82
2023/08/31 04:59:07;;;;;;;3.58;1.88;;;;;;;14.05;46.59;100534.91;5030932;28;20444;-83
2023/08/31 05:01:35;;;;;;;3.78;1.85;;;;;;;14.04;47.03;100533.16;5053830;28;20275;-83
2023/08/31 05:04:05;;;;;;;3.30;2.03;;;;;;;14.04;46.99;100545.03;5015754;28;20044;-82
2023/08/31 05:06:33;;;;;;;3.17;1.83;;;;;;;14.02;47.16;100536.94;5026095;28;20203;-82
2023/08/31 05:09:03;;;;;;;3.50;2.30;;;;;;;14.04;46.71;100544.19;5035114;28;20041;-82
2023/08/31 05:11:31;;;;;;;3.95;1.98;;;;;;;14.00;46.63;100552.78;5035286;28;20048;-83
2023/08/31 05:13:59;;;;;;;4.07;2.03;;;;;;;14.01;47.06;100550.91;5058516;28;20087;-81
2023/08/31 05:16:27;;;;;;;3.30;1.77;;;;;;;14.00;47.14;100547.28;5037164;28;20083;-82
2023/08/31 05:18:55;;;;;;;4.30;1.95;;;;;;;14.00;47.17;100551.91;5039469;28;20033;-82
2023/08/31 05:21:23;;;;;;;4.32;2.00;;;;;;;13.98;47.29;100551.22;5048491;28;20105;-83
2023/08/31 05:23:51;;;;;;;2.67;1.92;;;;;;;13.99;47.32;100564.81;5053527;28;20054;-83
2023/08/31 05:26:20;;;;;;;3.50;1.90;;;;;;;14.00;47.35;100574.78;5038055;28;20049;-82
2023/08/31 05:28:48;;;;;;;4.40;1.95;;;;;;;13.98;46.86;100578.72;5031916;28;20080;-84
2023/08/31 05:31:16;;;;;;;4.55;1.90;;;;;;;13.99;47.19;100572.19;5035074;28;20140;-83
2023/08/31 05:33:44;;;;;;;3.38;2.00;;;;;;;13.99;47.28;100581.31;5033934;28;20102;-83
2023/08/31 05:36:12;;;;;;;3.08;2.00;;;;;;;13.99;47.34;100578.56;5043968;28;20049;-82
2023/08/31 05:38:40;;;;;;;4.03;2.10;;;;;;;13.99;47.31;100578.56;5061682;28;20083;-83
2023/08/31 05:41:09;;;;;;;3.92;2.03;;;;;;;13.98;47.37;100579.59;5060818;28;20037;-83
2023/08/31 05:43:40;;;;;;;3.85;2.30;;;;;;;14.02;46.96;100591.16;5043650;28;20045;-82
2023/08/31 05:46:08;;;;;;;3.20;2.10;;;;;;;13.98;47.35;100592.47;5042210;28;20355;-81
2023/08/31 05:48:37;;;;;;;4.00;1.92;;;;;;;14.02;47.11;100593.03;5028952;28;20041;-83
2023/08/31 05:51:05;;;;;;;3.90;1.98;;;;;;;14.02;47.14;100598.53;5045579;28;20045;-81
2023/08/31 05:53:33;;;;;;;3.70;2.05;;;;;;;14.02;47.55;100593.91;5029750;28;20637;-83
2023/08/31 05:56:04;;;;;;;2.90;1.88;;;;;;;14.04;47.49;100590.97;5037477;28;20055;-82
2023/08/31 05:58:33;;;;;;;3.50;1.98;;;;;;;14.03;47.69;100598.34;5031811;28;20118;-82
2023/08/31 06:01:03;;;;;;;4.15;1.90;;;;;;;14.04;47.52;100597.31;5028798;28;20061;-82
2023/08/31 06:03:32;;;;;;;3.20;1.92;;;;;;;14.04;47.62;100605.56;5037025;28;20037;-82
2023/08/31 06:06:00;;;;;;;4.75;2.15;;;;;;;14.05;47.53;100604.56;5054540;28;20458;-82
2023/08/31 06:08:29;;;;;;;3.83;1.92;;;;;;;14.05;47.12;100601.81;5033502;28;20049;-81
2023/08/31 06:10:57;;;;;;;3.55;1.95;;;;;;;14.06;47.57;100606.28;5031881;28;20053;-81
2023/08/31 06:13:25;;;;;;;3.95;2.00;;;;;;;14.06;47.18;100602.66;5046858;28;20067;-81
2023/08/31 06:15:55;;;;;;;3.40;1.92;;;;;;;14.06;47.82;100609.03;5037082;28;20151;-83
2023/08/31 06:18:24;;;;;;;3.88;2.08;;;;;;;14.06;47.56;100610.91;5032863;28;20045;-82
2023/08/31 06:20:52;;;;;;;4.43;2.15;;;;;;;14.06;47.89;100617.28;5052171;28;20097;-84
2023/08/31 06:23:20;;;;;;;4.32;1.92;;;;;;;14.08;47.72;100612.50;5036231;28;20045;-82
2023/08/31 06:25:48;;;;;;;3.97;2.03;;;;;;;14.09;48.12;100619.72;5058054;28;20140;-81
2023/08/31 06:28:16;;;;;;;4.13;2.00;;;;;;;14.10;48.31;100628.84;5047693;28;20081;-81
2023/08/31 06:30:46;;;;;;;3.60;1.83;;;;;;;14.11;47.72;100617.66;5048941;28;20064;-81
2023/08/31 06:33:15;;;;;;;4.65;1.90;;;;;;;14.12;47.93;100621.28;5034613;28;20061;-80
2023/08/31 06:35:48;;;;;;;3.08;1.85;;;;;;;14.14;48.02;100617.34;5046158;28;20578;-81
2023/08/31 06:38:16;;;;;;;3.55;2.00;;;;;;;14.13;47.78;100628.50;5031173;28;20087;-82
2023/08/31 06:40:44;;;;;;;3.28;1.70;;;;;;;14.15;47.94;100624.56;5036448;28;20140;-83
2023/08/31 06:43:12;;;;;;;4.57;1.80;;;;;;;14.17;48.15;100628.03;5032321;28;20067;-81
2023/08/31 06:45:41;;;;;;;3.80;2.08;;;;;;;14.19;47.91;100627.88;5032075;28;20072;-82
2023/08/31 06:48:09;;;;;;;6.07;2.00;;;;;;;14.20;48.30;100624.06;5045777;28;20049;-83
2023/08/31 06:50:37;;;;;;;4.10;1.90;;;;;;;14.21;47.91;100620.28;5028701;28;20053;-82
2023/08/31 06:53:06;;;;;;;5.10;1.98;;;;;;;14.26;48.22;100626.19;5031013;28;20048;-83
2023/08/31 06:55:35;;;;;;;4.25;1.85;;;;;;;14.28;48.59;100626.88;5031254;28;20053;-82
2023/08/31 06:58:04;;;;;;;3.50;1.90;;;;;;;14.33;48.60;100624.50;5026433;28;20048;-82
2023/08/31 07:00:33;;;;;;;3.70;2.00;;;;;;;14.39;49.43;100626.59;5041640;28;20106;-81
2023/08/31 07:03:01;;;;;;;4.78;1.92;;;;;;;14.48;49.63;100627.53;5031772;28;20104;-82
2023/08/31 07:05:29;;;;;;;3.85;1.70;;;;;;;14.58;49.81;100623.63;5033807;28;20335;-82
2023/08/31 07:07:58;;;;;;;3.38;1.60;;;;;;;14.70;49.70;100636.03;5029813;28;20116;-81
2023/08/31 07:10:27;;;;;;;3.25;1.58;;;;;;;14.87;49.78;100638.84;5020960;28;20509;-80
2023/08/31 07:12:55;;;;;;;3.45;1.73;;;;;;;14.99;50.21;100638.38;5024054;28;20052;-80
2023/08/31 07:15:23;;;;;;;3.38;1.50;;;;;;;15.14;49.67;100641.34;5047891;28;20148;-80
2023/08/31 07:17:51;;;;;;;4.35;1.70;;;;;;;15.30;50.31;100635.84;5034867;28;21405;-81
2023/08/31 07:20:19;;;;;;;3.22;1.70;;;;;;;15.47;49.74;100640.38;5033155;28;20059;-79
2023/08/31 07:22:46;;;;;;;2.75;1.52;;;;;;;15.65;50.13;100642.09;5031093;28;20152;-81
2023/08/31 07:25:15;;;;;;;3.17;1.65;;;;;;;15.83;49.21;100653.84;5029978;28;20044;-80
2023/08/31 07:27:44;;;;;;;4.47;2.22;;;;;;;16.02;49.28;100647.94;5030621;28;20128;-80
2023/08/31 07:30:12;;;;;;;3.72;1.77;;;;;;;16.17;49.04;100648.97;5031903;28;20083;-80
2023/08/31 07:32:40;;;;;;;2.25;1.20;;;;;;;16.34;48.54;100651.69;5031380;28;20040;-80
2023/08/31 07:35:09;;;;;;;3.05;1.80;;;;;;;16.50;48.06;100652.50;5047969;28;20037;-79
2023/08/31 07:37:37;;;;;;;3.95;1.90;;;;;;;16.63;47.68;100652.81;5047705;28;20044;-80
2023/08/31 07:40:09;;;;;;;3.35;1.95;;;;;;;16.78;47.31;100654.81;5029439;28;20059;-78
2023/08/31 07:42:38;;;;;;;2.53;1.48;;;;;;;16.90;47.22;100653.38;5031103;28;20084;-79
2023/08/31 07:45:08;;;;;;;3.38;1.67;;;;;;;17.04;46.57;100660.06;5032902;28;20127;-80
2023/08/31 07:47:36;;;;;;;3.33;1.55;;;;;;;17.14;46.95;100664.34;5031924;28;20049;-81
2023/08/31 07:50:06;;;;;;;3.40;1.60;;;;;;;17.24;46.44;100666.84;5050065;28;20043;-81
2023/08/31 07:52:34;;;;;;;3.05;1.42;;;;;;;17.32;46.43;100667.66;5032567;28;20071;-79
2023/08/31 07:55:02;;;;;;;2.72;1.45;;;;;;;17.40;46.10;100675.88;5032884;28;20043;-80
2023/08/31 07:57:31;;;;;;;2.63;1.40;;;;;;;17.49;45.38;100675.84;5035110;28;20124;-82
2023/08/31 07:59:58;;;;;;;4.25;1.67;;;;;;;17.55;45.49;100678.75;5045519;28;20064;-82
2023/08/31 08:02:28;;;;;;;3.50;1.75;;;;;;;17.62;45.07;100670.56;5037335;28;20053;-82
2023/08/31 08:04:56;;;;;;;3.45;1.65;;;;;;;17.67;45.24;100676.41;5052969;28;20049;-82
2023/08/31 08:07:24;;;;;;;2.55;1.48;;;;;;;17.72;44.66;100672.03;5045539;28;20047;-81
2023/08/31 08:09:52;;;;;;;2.65;1.27;;;;;;;17.75;44.49;100679.13;5064308;28;20076;-80
2023/08/31 08:12:20;;;;;;;3.70;1.60;;;;;;;17.80;44.71;100675.81;5045721;28;20059;-81
2023/08/31 08:14:48;;;;;;;2.78;1.58;;;;;;;17.82;44.92;100679.25;5032422;28;20459;-81
2023/08/31 08:17:16;;;;;;;2.67;1.40;;;;;;;17.86;44.48;100684.25;5046057;28;20091;-81
2023/08/31 08:19:45;;;;;;;4.45;1.73;;;;;;;17.91;44.65;100678.13;5048220;28;20029;-81
2023/08/31 08:22:13;;;;;;;3.45;1.60;;;;;;;17.94;44.58;100680.53;5055807;28;20080;-81
2023/08/31 08:24:40;;;;;;;2.60;1.55;;;;;;;17.99;44.57;100686.34;5034165;28;20138;-82
2023/08/31 08:27:10;;;;;;;3.65;1.50;;;;;;;18.02;44.36;100686.00;5031116;28;20190;-82
2023/08/31 08:29:38;;;;;;;3.55;1.40;;;;;;;18.07;44.16;100689.91;5031444;28;20041;-82
2023/08/31 08:32:08;;;;;;;3.92;1.65;;;;;;;18.11;44.07;100691.28;5049129;28;20037;-81
2023/08/31 08:34:36;;;;;;;3.95;1.63;;;;;;;18.16;43.86;100685.16;5033919;28;20536;-82
2023/08/31 08:37:05;;;;;;;3.33;1.48;;;;;;;18.23;43.87;100686.13;5054257;28;20049;-83
2023/08/31 08:39:33;;;;;;;3.17;1.83;;;;;;;18.25;43.55;100688.72;5038071;28;20044;-82
2023/08/31 08:42:05;;;;;;;4.22;1.70;;;;;;;18.33;43.02;100685.84;5054174;28;20121;-82
2023/08/31 08:44:34;;;;;;;3.33;1.60;;;;;;;18.34;43.52;100690.34;5029253;28;20057;-82
2023/08/31 08:47:03;;;;;;;3.53;2.00;;;;;;;18.39;43.35;100694.25;5035245;28;20049;-82
2023/08/31 08:49:32;;;;;;;4.75;1.60;;;;;;;18.43;43.23;100698.38;5033565;28;20037;-82
2023/08/31 08:52:00;;;;;;;2.88;1.40;;;;;;;18.46;42.95;100694.38;5030890;28;20099;-82
2023/08/31 08:54:29;;;;;;;5.40;1.75;;;;;;;18.50;42.87;100696.59;5052440;28;20572;-82
2023/08/31 08:56:57;;;;;;;3.65;1.52;;;;;;;18.53;43.18;100703.69;5028107;28;20072;-82
2023/08/31 08:59:25;;;;;;;3.08;1.58;;;;;;;18.58;42.98;100697.56;5033738;28;20049;-82
2023/08/31 09:01:53;;;;;;;3.17;1.40;;;;;;;18.60;42.59;100693.56;5053122;28;20127;-82
2023/08/31 09:04:21;;;;;;;3.05;1.50;;;;;;;18.67;42.64;100685.34;5035487;28;20183;-82
2023/08/31 09:06:51;;;;;;;3.08;1.40;;;;;;;18.73;42.67;100701.19;5034511;28;20049;-82
2023/08/31 09:09:19;;;;;;;2.78;1.30;;;;;;;18.75;43.01;100690.78;5033669;28;20059;-82
2023/08/31 09:11:48;;;;;;;2.90;1.15;;;;;;;18.79;42.59;100701.31;5036278;28;20508;-81
2023/08/31 09:14:20;;;;;;;3.78;1.15;;;;;;;18.84;42.77;100707.13;5029123;28;20485;-81
2023/08/31 09:16:49;;;;;;;2.90;1.30;;;;;;;18.90;42.64;100697.16;5032416;28;20550;-82
2023/08/31 09:19:22;;;;;;;2.72;1.13;;;;;;;18.94;41.30;100695.75;5047339;28;20053;-81
2023/08/31 09:21:50;;;;;;;2.47;1.20;;;;;;;18.95;42.20;100705.78;5029657;28;20049;-81
2023/08/31 09:24:19;;;;;;;3.63;1.42;;;;;;;19.01;41.79;100709.69;5033181;28;20042;-82
2023/08/31 09:26:48;;;;;;;3.60;1.40;;;;;;;19.05;41.65;100699.94;5030604;28;20098;-81
2023/08/31 09:29:18;;;;;;;2.45;1.20;;;;;;;19.08;41.13;100705.09;5042085;28;20033;-81
2023/08/31 09:31:47;;;;;;;3.30;1.38;;;;;;;19.09;41.32;100709.59;5031666;28;20045;-81
2023/08/31 09:34:16;;;;;;;2.88;1.50;;;;;;;19.11;40.84;100713.03;5027439;28;20121;-81
2023/08/31 09:36:44;;;;;;;2.38;1.20;;;;;;;19.11;40.36;100710.25;5033667;28;20531;-82
2023/08/31 09:39:15;;;;;;;3.58;1.33;;;;;;;19.12;40.39;100709.22;5041859;28;20489;-83
2023/08/31 09:41:56;;;;;;;2.67;1.20;;;;;;;19.12;39.78;100715.63;5038063;28;20052;-82
2023/08/31 09:44:25;;;;;;;2.47;1.20;;;;;;;19.10;40.14;100711.31;5031309;28;20053;-81
2023/08/31 09:46:54;;;;;;;2.22;1.20;;;;;;;19.07;40.39;100712.53;5014509;28;20045;-79
2023/08/31 09:49:22;;;;;;;4.40;1.50;;;;;;;19.07;39.99;100704.22;5032251;28;20040;-79
2023/08/31 09:51:51;;;;;;;3.78;1.60;;;;;;;19.07;40.11;100704.22;5065358;28;20051;-80
2023/08/31 09:54:21;;;;;;;3.35;1.60;;;;;;;19.07;40.11;100703.38;5038885;28;20052;-79
2023/08/31 09:56:49;;;;;;;2.55;1.30;;;;;;;19.05;40.75;100697.19;5030170;28;20073;-80
2023/08/31 09:59:17;;;;;;;2.83;1.30;;;;;;;19.06;40.09;100709.97;5046442;28;20041;-81
2023/08/31 10:01:48;;;;;;;3.75;1.42;;;;;;;19.10;39.67;100697.44;5030839;28;20072;-80
2023/08/31 10:04:17;;;;;;;3.55;1.80;;;;;;;19.09;40.01;100707.66;5017229;28;20224;-80
2023/08/31 10:06:44;;;;;;;2.90;1.58;;;;;;;19.11;40.12;100704.72;5043213;28;20045;-80
2023/08/31 10:09:14;;;;;;;3.00;1.55;;;;;;;19.16;39.77;100702.19;5022316;28;20041;-80
2023/08/31 10:11:42;;;;;;;2.35;1.15;;;;;;;19.17;39.52;100703.94;5023755;28;20056;-80
2023/08/31 10:14:11;;;;;;;2.10;1.20;;;;;;;19.20;39.30;100709.09;5029157;28;20113;-80
2023/08/31 10:16:40;;;;;;;2.95;1.45;;;;;;;19.21;38.90;100708.91;5026979;28;20508;-81
2023/08/31 10:19:10;;;;;;;2.90;1.38;;;;;;;19.22;38.84;100713.41;5028470;28;20136;-81
2023/08/31 10:21:39;;;;;;;3.85;1.45;;;;;;;19.20;38.80;100710.00;5034494;28;20060;-80
2023/08/31 10:24:07;;;;;;;2.17;1.20;;;;;;;19.19;38.61;100708.25;5035410;28;20048;-80
2023/08/31 10:26:36;;;;;;;2.80;1.40;;;;;;;19.18;38.80;100705.66;5035092;28;20045;-80
2023/08/31 10:29:04;;;;;;;2.95;1.30;;;;;;;19.15;38.82;100706.03;5030090;28;20073;-81
2023/08/31 10:31:35;;;;;;;3.92;1.40;;;;;;;19.14;38.32;100707.94;5015867;28;20050;-79
2023/08/31 10:34:04;;;;;;;2.97;1.40;;;;;;;19.13;38.21;100708.16;5017990;28;20124;-81
2023/08/31 10:36:39;;;;;;;3.28;1.85;;;;;;;19.11;38.16;100702.78;5018769;28;20053;-81
2023/08/31 10:39:12;;;;;;;2.92;1.42;;;;;;;19.06;38.37;100709.97;5016581;28;20091;-81
2023/08/31 10:41:40;;;;;;;3.55;1.42;;;;;;;19.01;38.88;100702.22;5043347;28;20045;-80
2023/08/31 10:44:20;;;;;;;3.63;1.30;;;;;;;19.02;38.17;100706.72;5011839;28;20045;-80
2023/08/31 10:46:48;;;;;;;3.25;1.40;;;;;;;18.98;38.73;100704.53;5009001;28;20060;-79
2023/08/31 10:49:19;;;;;;;3.65;1.40;;;;;;;18.98;39.21;100707.28;5015741;28;20041;-79
2023/08/31 10:51:50;;;;;;;2.75;1.55;;;;;;;18.97;38.70;100709.19;5017473;28;20136;-79
2023/08/31 10:54:23;;;;;;;2.67;1.27;;;;;;;18.98;38.96;100701.75;5018486;28;20068;-81
2023/08/31 10:57:11;;;;;;;3.28;1.38;;;;;;;18.97;38.73;100702.78;5011759;28;20063;-79
2023/08/31 10:59:47;;;;;;;3.17;1.45;;;;;;;19.02;38.68;100711.41;5041460;28;20118;-78
2023/08/31 11:02:29;;;;;;;3.50;1.40;;;;;;;19.05;38.55;100702.72;5026517;28;20500;-80
2023/08/31 11:05:03;;;;;;;2.30;1.40;;;;;;;19.07;39.09;100701.44;5026243;28;20516;-79
2023/08/31 11:07:34;;;;;;;3.22;1.35;;;;;;;19.13;39.20;100703.44;5042454;28;20059;-79
2023/08/31 11:10:16;;;;;;;4.22;1.73;;;;;;;19.18;38.08;100702.88;5025913;28;20041;-79
2023/08/31 11:12:46;;;;;;;3.47;1.60;;;;;;;19.21;38.43;100699.75;5022778;28;20041;-79
2023/08/31 11:15:16;;;;;;;3.22;1.60;;;;;;;19.23;38.18;100701.25;5041728;28;20049;-80
2023/08/31 11:17:44;;;;;;;3.85;1.58;;;;;;;19.25;38.00;100698.28;5043874;28;20041;-79
2023/08/31 11:20:16;;;;;;;3.80;1.50;;;;;;;19.29;37.56;100701.56;5030523;28;20508;-79
2023/08/31 11:22:46;;;;;;;;;;;;;;;19.00;38.73;100691.31;5031691;28;20049;-79
2023/08/31 11:25:15;;;;;;;2.83;1.40;;;;;;;19.23;38.20;100692.06;5046791;28;19925;-79
2023/08/31 11:27:44;;;;;;;1.92;1.13;;;;;;;19.25;38.16;100682.50;5051828;28;20053;-79
2023/08/31 11:30:14;;;;;;;2.20;1.30;;;;;;;19.24;38.13;100704.91;5051323;28;20048;-79
2023/08/31 11:32:46;;;;;;;2.25;1.20;;;;;;;19.23;37.63;100706.81;5039342;28;20052;-79